createdAt,value
2023-01-27T00:00:23.210Z,84050.94
2023-01-27T00:03:25.969Z,84055.66
2023-01-27T00:06:28.274Z,84050.94
2023-01-27T00:09:30.992Z,84047.81
2023-01-27T00:12:52.273Z,84052.50
2023-01-27T00:15:55.818Z,84047.75
2023-01-27T00:18:58.189Z,84061.97
2023-01-27T00:22:19.630Z,84052.47
2023-01-27T00:25:21.940Z,84047.78
2023-01-27T00:28:25.378Z,84044.66
2023-01-27T00:31:46.641Z,84058.84
2023-01-27T00:34:49.571Z,84050.91
2023-01-27T00:37:52.397Z,84041.44
2023-01-27T00:41:14.141Z,84048.56
2023-01-27T00:44:16.936Z,84065.16
2023-01-27T00:47:19.705Z,84072.22
2023-01-27T00:50:22.105Z,84071.41
2023-01-27T00:53:27.585Z,84057.19
2023-01-27T00:56:30.326Z,84055.66
2023-01-27T00:59:33.309Z,84057.28
2023-01-27T01:02:36.708Z,84063.53
2023-01-27T01:05:39.375Z,84061.97
2023-01-27T01:08:42.671Z,84054.84
2023-01-27T01:11:45.374Z,84058.81
2023-01-27T01:14:48.006Z,84053.31
2023-01-27T01:17:50.703Z,84069.06
2023-01-27T01:20:53.000Z,84056.41
2023-01-27T01:23:55.606Z,84050.13
2023-01-27T01:26:57.924Z,84064.37
2023-01-27T01:30:01.216Z,84053.25
2023-01-27T01:33:04.405Z,84058.78
2023-01-27T01:36:09.248Z,84066.66
2023-01-27T01:39:11.631Z,84065.09
2023-01-27T01:42:14.212Z,84061.16
2023-01-27T01:45:31.770Z,84061.94
2023-01-27T01:48:39.613Z,84069.88
2023-01-27T01:51:45.133Z,84058.78
2023-01-27T01:54:53.473Z,84063.53
2023-01-27T01:57:55.968Z,84063.50
2023-01-27T02:00:58.647Z,84063.50
2023-01-27T02:04:08.338Z,84069.88
2023-01-27T02:07:27.707Z,84069.78
2023-01-27T02:10:32.197Z,84065.09
2023-01-27T02:13:34.910Z,84062.72
2023-01-27T02:16:38.441Z,84057.19
2023-01-27T02:19:56.918Z,84050.91
2023-01-27T02:23:28.578Z,84050.88
2023-01-27T02:26:34.769Z,84055.63
2023-01-27T02:29:37.350Z,84054.06
2023-01-27T02:32:40.312Z,84066.69
2023-01-27T02:36:07.293Z,84060.38
2023-01-27T02:39:14.628Z,84065.06
2023-01-27T02:42:19.439Z,84048.50
2023-01-27T02:45:22.143Z,84055.59
2023-01-27T02:48:25.483Z,84052.44
2023-01-27T02:51:28.249Z,84055.59
2023-01-27T02:54:30.919Z,84063.47
2023-01-27T02:57:33.725Z,84062.66
2023-01-27T03:00:36.975Z,84069.78
2023-01-27T03:03:47.541Z,84065.03
2023-01-27T03:06:51.748Z,84063.44
2023-01-27T03:09:55.298Z,84065.03
2023-01-27T03:12:57.782Z,84068.22
2023-01-27T03:16:19.459Z,84073.69
2023-01-27T03:19:21.904Z,84072.88
2023-01-27T03:22:26.325Z,84076.06
2023-01-27T03:25:29.424Z,84080.78
2023-01-27T03:28:32.129Z,84079.19
2023-01-27T03:31:34.807Z,84076.00
2023-01-27T03:34:37.638Z,84072.94
2023-01-27T03:37:59.947Z,84078.41
2023-01-27T03:41:24.593Z,84080.78
2023-01-27T03:44:45.894Z,84076.03
2023-01-27T03:47:48.609Z,84077.56
2023-01-27T03:50:53.966Z,84074.50
2023-01-27T03:53:56.643Z,84076.00
2023-01-27T03:57:06.347Z,84076.06
2023-01-27T04:00:10.103Z,84071.31
2023-01-27T04:03:33.692Z,84069.72
2023-01-27T04:06:58.585Z,84066.53
2023-01-27T04:10:00.982Z,84058.69
2023-01-27T04:13:04.132Z,84057.09
2023-01-27T04:16:06.944Z,84053.94
2023-01-27T04:19:10.817Z,84060.25
2023-01-27T04:22:15.836Z,84068.12
2023-01-27T04:25:18.787Z,84068.12
2023-01-27T04:28:37.264Z,84071.28
2023-01-27T04:31:44.308Z,84068.12
2023-01-27T04:34:46.671Z,84070.44
2023-01-27T04:37:49.477Z,84075.97
2023-01-27T04:40:52.055Z,84078.34
2023-01-27T04:43:54.718Z,84080.78
2023-01-27T04:46:57.108Z,84084.69
2023-01-27T04:49:59.755Z,84087.03
2023-01-27T04:53:02.138Z,84087.03
2023-01-27T04:56:07.809Z,84090.97
2023-01-27T04:59:15.717Z,84094.94
2023-01-27T05:02:18.299Z,84101.22
2023-01-27T05:05:20.694Z,84105.97
2023-01-27T05:08:23.362Z,84103.59
2023-01-27T05:11:25.731Z,84107.53
2023-01-27T05:14:28.399Z,84112.31
2023-01-27T05:17:32.438Z,84109.13
2023-01-27T05:20:35.063Z,84107.47
2023-01-27T05:23:38.567Z,84109.09
2023-01-27T05:26:41.353Z,84106.72
2023-01-27T05:29:44.427Z,84106.72
2023-01-27T05:32:47.211Z,84105.91
2023-01-27T05:35:50.227Z,84104.34
2023-01-27T05:38:54.481Z,84109.09
2023-01-27T05:41:56.883Z,84111.41
2023-01-27T05:44:59.516Z,84110.63
2023-01-27T05:48:01.896Z,84109.09
2023-01-27T05:51:05.760Z,84112.25
2023-01-27T05:54:09.065Z,84112.25
2023-01-27T05:57:11.714Z,84120.16
2023-01-27T06:00:16.544Z,84113.78
2023-01-27T06:03:19.644Z,84112.19
2023-01-27T06:06:23.974Z,84105.91
2023-01-27T06:09:26.608Z,84102.75
2023-01-27T06:12:28.989Z,84107.50
2023-01-27T06:15:32.067Z,84102.00
2023-01-27T06:18:34.573Z,84102.81
2023-01-27T06:21:37.247Z,84094.87
2023-01-27T06:24:39.604Z,84082.31
2023-01-27T06:27:42.299Z,84077.56
2023-01-27T06:30:44.829Z,84073.69
2023-01-27T06:33:47.877Z,84075.19
2023-01-27T06:36:52.763Z,84072.06
2023-01-27T06:39:55.424Z,84066.56
2023-01-27T06:42:58.416Z,84071.31
2023-01-27T06:46:03.041Z,84058.69
2023-01-27T06:49:07.181Z,84049.25
2023-01-27T06:52:09.769Z,84054.03
2023-01-27T06:55:12.138Z,84052.41
2023-01-27T06:58:15.956Z,84042.94
2023-01-27T07:01:18.597Z,84036.69
2023-01-27T07:04:22.799Z,84035.06
2023-01-27T07:07:25.370Z,84028.72
2023-01-27T07:10:28.156Z,84028.75
2023-01-27T07:13:30.510Z,84022.47
2023-01-27T07:16:33.203Z,84011.44
2023-01-27T07:19:36.074Z,84013.78
2023-01-27T07:22:39.595Z,84004.34
2023-01-27T07:25:42.429Z,84000.38
2023-01-27T07:28:45.105Z,84008.28
2023-01-27T07:31:47.603Z,84015.41
2023-01-27T07:34:51.268Z,84013.81
2023-01-27T07:37:55.908Z,84019.34
2023-01-27T07:40:58.639Z,84010.66
2023-01-27T07:44:00.973Z,84001.97
2023-01-27T07:47:04.019Z,83999.62
2023-01-27T07:50:06.708Z,83998.09
2023-01-27T07:53:10.854Z,83997.22
2023-01-27T07:56:13.567Z,83986.22
2023-01-27T07:59:16.235Z,83983.06
2023-01-27T08:02:19.888Z,83979.91
2023-01-27T08:05:23.235Z,83978.31
2023-01-27T08:08:25.620Z,83983.06
2023-01-27T08:11:28.184Z,83978.31
2023-01-27T08:14:31.760Z,83977.56
2023-01-27T08:17:34.379Z,83968.88
2023-01-27T08:20:37.007Z,83975.16
2023-01-27T08:23:39.848Z,83976.75
2023-01-27T08:26:42.355Z,83972.03
2023-01-27T08:29:45.149Z,83975.22
2023-01-27T08:32:47.958Z,83976.00
2023-01-27T08:35:51.170Z,83972.84
2023-01-27T08:38:53.580Z,83968.88
2023-01-27T08:41:57.275Z,83972.84
2023-01-27T08:45:00.549Z,83968.88
2023-01-27T08:48:05.701Z,83967.28
2023-01-27T08:51:11.123Z,83970.50
2023-01-27T08:54:15.462Z,83967.28
2023-01-27T08:57:18.472Z,83970.47
2023-01-27T09:00:24.437Z,83962.59
2023-01-27T09:03:27.048Z,83967.31
2023-01-27T09:06:29.674Z,83964.16
2023-01-27T09:09:32.801Z,83970.47
2023-01-27T09:12:35.458Z,83971.28
2023-01-27T09:15:38.727Z,83968.94
2023-01-27T09:18:42.534Z,83964.16
2023-01-27T09:21:45.391Z,83961.00
2023-01-27T09:24:48.276Z,83951.53
2023-01-27T09:27:55.607Z,83953.12
2023-01-27T09:30:59.564Z,83955.50
2023-01-27T09:34:01.994Z,83970.47
2023-01-27T09:37:11.009Z,83967.34
2023-01-27T09:40:26.397Z,83968.91
2023-01-27T09:43:41.052Z,83958.66
2023-01-27T09:47:01.889Z,83970.47
2023-01-27T09:50:38.143Z,83965.75
2023-01-27T09:54:05.352Z,83975.22
2023-01-27T09:57:42.470Z,83973.69
2023-01-27T10:01:00.037Z,83992.53
2023-01-27T10:04:05.663Z,83981.50
2023-01-27T10:07:50.427Z,83971.28
2023-01-27T10:11:01.899Z,83994.13
2023-01-27T10:14:35.099Z,83989.38
2023-01-27T10:17:40.780Z,83986.25
2023-01-27T10:20:59.201Z,83968.91
2023-01-27T10:24:21.990Z,83967.31
2023-01-27T10:27:26.518Z,83995.69
2023-01-27T10:30:35.007Z,83962.59
2023-01-27T10:33:53.228Z,83972.06
2023-01-27T10:37:10.171Z,83990.19
2023-01-27T10:40:18.702Z,83975.25
2023-01-27T10:44:00.167Z,83970.47
2023-01-27T10:47:40.035Z,83981.56
2023-01-27T10:50:59.305Z,83957.06
2023-01-27T10:54:14.121Z,83976.78
2023-01-27T10:57:21.157Z,83981.50
2023-01-27T11:04:39.457Z,83989.38
2023-01-27T11:07:58.689Z,83976.00
2023-01-27T11:11:24.484Z,83992.50
2023-01-27T11:14:44.060Z,83998.84
2023-01-27T11:18:09.652Z,83997.22
2023-01-27T11:21:21.119Z,83989.38
2023-01-27T11:24:36.322Z,83992.56
2023-01-27T11:28:14.627Z,83982.31
2023-01-27T11:31:48.231Z,83988.59
2023-01-27T11:35:09.813Z,83975.97
2023-01-27T11:38:20.659Z,83973.59
2023-01-27T11:41:23.320Z,83978.34
2023-01-27T11:44:32.407Z,83973.59
2023-01-27T11:47:42.896Z,83975.19
2023-01-27T11:50:46.216Z,83973.56
2023-01-27T11:54:03.594Z,83984.63
2023-01-27T11:57:17.857Z,83975.19
2023-01-27T12:00:26.149Z,83965.72
2023-01-27T12:03:38.306Z,83951.53
2023-01-27T12:06:59.771Z,83959.41
2023-01-27T12:10:03.757Z,83959.38
2023-01-27T12:13:24.944Z,83949.94
2023-01-27T12:16:46.014Z,83943.59
2023-01-27T12:19:48.820Z,83929.44
2023-01-27T12:22:59.210Z,83929.47
2023-01-27T12:26:05.192Z,83946.00
2023-01-27T12:29:19.212Z,83925.50
2023-01-27T12:32:47.050Z,83915.25
2023-01-27T12:35:50.748Z,83915.28
2023-01-27T12:39:00.790Z,83907.34
2023-01-27T12:42:04.699Z,83915.25
2023-01-27T12:45:22.227Z,83907.34
2023-01-27T12:48:24.949Z,83916.03
2023-01-27T12:51:56.184Z,83926.31
2023-01-27T12:54:58.891Z,83928.63
2023-01-27T12:58:03.038Z,83912.88
2023-01-27T13:01:22.145Z,83924.72
2023-01-27T13:04:27.175Z,83934.16
2023-01-27T13:07:52.590Z,83934.13
2023-01-27T13:11:00.853Z,83951.53
2023-01-27T13:14:08.410Z,83953.03
2023-01-27T13:17:30.175Z,83967.22
2023-01-27T13:21:17.506Z,83964.91
2023-01-27T13:24:38.795Z,83979.87
2023-01-27T13:27:42.899Z,83979.06
2023-01-27T13:30:52.429Z,83979.09
2023-01-27T13:34:00.836Z,83978.28
2023-01-27T13:37:24.380Z,83976.72
2023-01-27T13:40:32.241Z,83972.84
2023-01-27T13:43:41.460Z,83956.22
2023-01-27T13:46:51.724Z,83953.88
2023-01-27T13:50:00.652Z,83949.13
2023-01-27T13:53:04.588Z,83964.13
2023-01-27T13:56:35.596Z,83969.63
2023-01-27T14:00:24.231Z,83961.78
2023-01-27T14:04:21.028Z,83949.94
2023-01-27T14:07:36.248Z,83935.75
2023-01-27T14:10:56.958Z,83924.69
2023-01-27T14:14:28.587Z,83927.09
2023-01-27T14:17:40.921Z,83926.28
2023-01-27T14:20:51.719Z,83929.41
2023-01-27T14:24:01.057Z,83953.12
2023-01-27T14:27:19.657Z,83951.50
2023-01-27T14:30:44.728Z,83952.28
2023-01-27T14:33:56.235Z,83942.06
2023-01-27T14:37:09.785Z,83947.56
2023-01-27T14:40:24.426Z,83932.56
2023-01-27T14:43:48.397Z,83929.44
2023-01-27T14:47:17.172Z,83924.69
2023-01-27T14:50:32.726Z,83923.12
2023-01-27T14:54:01.896Z,83923.12
2023-01-27T14:57:25.596Z,83923.12
2023-01-27T15:00:59.597Z,83918.41
2023-01-27T15:04:20.294Z,83926.28
2023-01-27T15:07:39.112Z,83923.16
2023-01-27T15:10:54.919Z,83915.25
2023-01-27T15:14:22.571Z,83918.41
2023-01-27T15:17:37.693Z,83921.56
2023-01-27T15:21:04.599Z,83918.41
2023-01-27T15:24:19.517Z,83913.69
2023-01-27T15:27:22.469Z,83934.22
2023-01-27T15:30:30.898Z,83926.28
2023-01-27T15:33:50.430Z,83923.94
2023-01-27T15:37:28.251Z,83938.09
2023-01-27T15:40:49.413Z,83937.31
2023-01-27T15:44:18.524Z,83940.47
2023-01-27T15:47:28.884Z,83943.69
2023-01-27T15:50:36.177Z,83954.66
2023-01-27T15:53:44.763Z,83958.59
2023-01-27T15:56:54.980Z,83963.38
2023-01-27T16:00:33.429Z,83962.53
2023-01-27T16:03:45.162Z,83949.94
2023-01-27T16:06:54.368Z,83956.28
2023-01-27T16:09:59.278Z,83946.78
2023-01-27T16:13:30.558Z,83946.00
2023-01-27T16:16:35.269Z,83942.84
2023-01-27T16:19:51.908Z,83946.78
2023-01-27T16:23:05.931Z,83956.25
2023-01-27T16:26:20.917Z,83957.81
2023-01-27T16:29:54.424Z,83957.84
2023-01-27T16:33:07.812Z,83960.19
2023-01-27T16:36:23.159Z,83968.88
2023-01-27T16:39:39.713Z,83966.53
2023-01-27T16:42:53.695Z,83957.84
2023-01-27T16:45:57.683Z,83954.69
2023-01-27T16:49:10.168Z,83957.81
2023-01-27T16:52:32.424Z,83961.00
2023-01-27T16:55:42.642Z,83956.28
2023-01-27T16:58:48.666Z,83962.59
2023-01-27T17:01:55.607Z,83961.00
2023-01-27T17:05:05.785Z,83956.31
2023-01-27T17:08:24.446Z,83953.09
2023-01-27T17:11:30.705Z,83963.38
2023-01-27T17:14:36.230Z,83957.87
2023-01-27T17:17:39.846Z,83962.56
2023-01-27T17:20:47.815Z,83961.81
2023-01-27T17:23:50.428Z,83954.69
2023-01-27T17:27:28.402Z,83956.28
2023-01-27T17:30:39.537Z,83966.53
2023-01-27T17:33:46.865Z,83963.38
2023-01-27T17:37:26.304Z,83961.00
2023-01-27T17:40:29.076Z,83957.03
2023-01-27T17:43:35.003Z,83957.87
2023-01-27T17:46:38.211Z,83960.25
2023-01-27T17:49:41.823Z,83959.44
2023-01-27T17:52:52.564Z,83954.69
2023-01-27T17:55:56.890Z,83957.84
2023-01-27T17:59:13.176Z,83957.87
2023-01-27T18:02:29.208Z,83959.47
2023-01-27T18:05:35.630Z,83949.97
2023-01-27T18:08:38.675Z,83954.75
2023-01-27T18:12:01.324Z,83956.31
2023-01-27T18:15:32.975Z,83962.59
2023-01-27T18:18:36.775Z,83957.84
2023-01-27T18:21:39.298Z,83961.00
2023-01-27T18:25:08.887Z,83956.28
2023-01-27T18:28:11.989Z,83962.59
2023-01-27T18:31:20.095Z,83964.16
2023-01-27T18:34:31.205Z,83969.69
2023-01-27T18:37:36.220Z,83971.28
2023-01-27T18:40:38.574Z,83970.53
2023-01-27T18:43:41.370Z,83965.72
2023-01-27T18:46:43.790Z,83965.75
2023-01-27T18:50:10.869Z,83956.28
2023-01-27T18:53:16.266Z,83964.19
2023-01-27T18:56:18.966Z,83960.22
2023-01-27T18:59:21.561Z,83956.28
2023-01-27T19:02:24.652Z,83964.16
2023-01-27T19:05:42.007Z,83961.00
2023-01-27T19:08:44.852Z,83964.19
2023-01-27T19:11:47.344Z,83964.19
2023-01-27T19:14:50.145Z,83962.59
2023-01-27T19:17:55.244Z,83962.59
2023-01-27T19:20:58.171Z,83960.22
2023-01-27T19:24:00.488Z,83962.56
2023-01-27T19:27:04.332Z,83968.94
2023-01-27T19:30:22.166Z,83968.91
2023-01-27T19:33:26.375Z,83968.88
2023-01-27T19:36:28.688Z,83966.53
2023-01-27T19:39:31.335Z,83970.50
2023-01-27T19:42:33.658Z,83968.94
2023-01-27T19:45:36.371Z,83969.75
2023-01-27T19:48:38.693Z,83967.31
2023-01-27T19:51:41.319Z,83964.19
2023-01-27T19:54:43.700Z,83972.06
2023-01-27T19:57:48.012Z,83967.34
2023-01-27T20:00:50.669Z,83968.12
2023-01-27T20:03:54.766Z,83972.06
2023-01-27T20:06:57.272Z,83976.00
2023-01-27T20:09:59.945Z,83973.66
2023-01-27T20:13:04.778Z,83968.94
2023-01-27T20:16:08.136Z,83973.66
2023-01-27T20:19:14.975Z,83969.69
2023-01-27T20:22:18.511Z,83968.97
2023-01-27T20:25:23.685Z,83977.59
2023-01-27T20:28:28.291Z,83976.81
2023-01-27T20:31:30.857Z,83979.97
2023-01-27T20:34:34.104Z,83984.69
2023-01-27T20:37:36.436Z,83983.16
2023-01-27T20:40:39.304Z,83981.53
2023-01-27T20:43:41.668Z,83980.00
2023-01-27T20:46:44.397Z,83979.97
2023-01-27T20:49:46.763Z,83979.97
2023-01-27T20:52:49.819Z,83982.31
2023-01-27T20:55:52.282Z,83981.59
2023-01-27T20:58:55.121Z,83968.12
2023-01-27T21:01:57.663Z,83979.97
2023-01-27T21:05:00.383Z,83979.97
2023-01-27T21:08:03.429Z,83979.16
2023-01-27T21:11:10.692Z,83980.75
2023-01-27T21:14:13.242Z,83992.63
2023-01-27T21:17:16.439Z,83973.69
2023-01-27T21:20:18.788Z,83977.63
2023-01-27T21:23:23.390Z,83989.44
2023-01-27T21:26:26.508Z,83985.53
2023-01-27T21:29:29.134Z,83981.56
2023-01-27T21:32:31.632Z,83980.00
2023-01-27T21:35:34.347Z,83981.56
2023-01-27T21:38:36.819Z,83983.16
2023-01-27T21:41:54.991Z,83987.84
2023-01-27T21:45:12.422Z,83986.28
2023-01-27T21:48:15.351Z,83984.69
2023-01-27T21:51:17.796Z,83983.09
2023-01-27T21:54:20.395Z,83983.12
2023-01-27T21:57:22.686Z,83986.31
2023-01-27T22:00:27.479Z,83989.44
2023-01-27T22:03:30.847Z,83998.94
2023-01-27T22:06:33.530Z,83995.78
2023-01-27T22:09:37.369Z,83991.06
2023-01-27T22:12:39.875Z,83999.69
2023-01-27T22:15:42.546Z,83998.09
2023-01-27T22:18:47.377Z,83998.91
2023-01-27T22:21:50.063Z,83996.53
2023-01-27T22:24:52.407Z,83994.16
2023-01-27T22:27:55.617Z,83992.59
2023-01-27T22:31:01.995Z,83994.19
2023-01-27T22:34:10.643Z,83986.31
2023-01-27T22:37:13.016Z,83992.59
2023-01-27T22:40:16.388Z,83983.94
2023-01-27T22:43:18.796Z,83981.59
2023-01-27T22:46:21.449Z,83981.56
2023-01-27T22:49:23.776Z,83981.56
2023-01-27T22:52:26.413Z,83984.72
2023-01-27T22:55:28.749Z,83988.63
2023-01-27T22:58:32.122Z,83986.28
2023-01-27T23:01:34.594Z,83981.53
2023-01-27T23:04:37.302Z,83983.91
2023-01-27T23:07:39.765Z,83984.69
2023-01-27T23:10:42.859Z,83980.00
2023-01-27T23:13:45.346Z,83984.69
2023-01-27T23:16:48.129Z,83987.84
2023-01-27T23:19:50.570Z,83984.72
2023-01-27T23:22:53.515Z,83987.06
2023-01-27T23:25:55.915Z,83988.66
2023-01-27T23:28:59.112Z,83985.47
2023-01-27T23:32:01.795Z,83993.38
2023-01-27T23:35:05.199Z,83987.03
2023-01-27T23:38:19.318Z,83983.09
2023-01-27T23:41:29.173Z,83986.28
2023-01-27T23:44:31.470Z,83987.84
2023-01-27T23:47:34.349Z,83987.84
2023-01-27T23:50:36.601Z,83996.53
2023-01-27T23:53:39.268Z,83989.44
2023-01-27T23:56:41.553Z,83994.16
2023-01-27T23:59:44.258Z,83992.56
